sensor_id;sensor_type;location;lat;lon;timestamp;temperature;humidity
25468;DHT22;13384;24.794;110.498;2023-03-31T00:02:16;15.20;99.90
25468;DHT22;13384;24.794;110.498;2023-03-31T00:04:52;15.30;99.90
25468;DHT22;13384;24.794;110.498;2023-03-31T00:07:44;15.20;99.90
25468;DHT22;13384;24.794;110.498;2023-03-31T00:10:19;15.20;99.90
25468;DHT22;13384;24.794;110.498;2023-03-31T00:13:12;15.30;99.90
25468;DHT22;13384;24.794;110.498;2023-03-31T00:15:44;15.30;99.90
25468;DHT22;13384;24.794;110.498;2023-03-31T00:18:17;15.30;99.90
25468;DHT22;13384;24.794;110.498;2023-03-31T00:20:50;15.40;99.90
25468;DHT22;13384;24.794;110.498;2023-03-31T00:23:25;15.30;99.90
25468;DHT22;13384;24.794;110.498;2023-03-31T00:25:57;15.50;99.90
25468;DHT22;13384;24.794;110.498;2023-03-31T00:28:29;15.50;99.90
25468;DHT22;13384;24.794;110.498;2023-03-31T00:31:03;15.50;99.90
25468;DHT22;13384;24.794;110.498;2023-03-31T00:33:38;15.60;99.90
25468;DHT22;13384;24.794;110.498;2023-03-31T00:36:30;15.60;99.90
25468;DHT22;13384;24.794;110.498;2023-03-31T00:39:25;15.50;99.90
25468;DHT22;13384;24.794;110.498;2023-03-31T00:42:03;15.60;99.90
25468;DHT22;13384;24.794;110.498;2023-03-31T00:47:32;15.60;99.90
25468;DHT22;13384;24.794;110.498;2023-03-31T00:50:19;15.70;99.90
25468;DHT22;13384;24.794;110.498;2023-03-31T00:52:56;15.70;99.90
25468;DHT22;13384;24.794;110.498;2023-03-31T00:55:36;15.80;99.90
25468;DHT22;13384;24.794;110.498;2023-03-31T00:58:30;15.80;99.90
25468;DHT22;13384;24.794;110.498;2023-03-31T01:01:04;15.90;99.90
25468;DHT22;13384;24.794;110.498;2023-03-31T01:03:56;15.90;99.90
25468;DHT22;13384;24.794;110.498;2023-03-31T01:06:30;15.80;99.90
25468;DHT22;13384;24.794;110.498;2023-03-31T01:09:04;15.80;99.90
25468;DHT22;13384;24.794;110.498;2023-03-31T01:11:36;15.80;99.90
25468;DHT22;13384;24.794;110.498;2023-03-31T01:14:08;15.70;99.90
25468;DHT22;13384;24.794;110.498;2023-03-31T01:16:40;15.80;99.90
25468;DHT22;13384;24.794;110.498;2023-03-31T01:19:30;15.90;99.90
25468;DHT22;13384;24.794;110.498;2023-03-31T01:25:04;16.00;99.90
25468;DHT22;13384;24.794;110.498;2023-03-31T01:37:15;16.00;99.90
25468;DHT22;13384;24.794;110.498;2023-03-31T01:42:58;16.00;99.90
25468;DHT22;13384;24.794;110.498;2023-03-31T01:45:54;16.10;99.90
25468;DHT22;13384;24.794;110.498;2023-03-31T01:48:53;16.10;99.90
25468;DHT22;13384;24.794;110.498;2023-03-31T01:51:45;16.20;99.90
25468;DHT22;13384;24.794;110.498;2023-03-31T01:58:29;16.30;99.90
25468;DHT22;13384;24.794;110.498;2023-03-31T02:04:48;16.40;99.90
25468;DHT22;13384;24.794;110.498;2023-03-31T02:07:45;16.30;99.90
25468;DHT22;13384;24.794;110.498;2023-03-31T02:10:43;16.30;99.90
25468;DHT22;13384;24.794;110.498;2023-03-31T02:13:17;16.20;99.90
25468;DHT22;13384;24.794;110.498;2023-03-31T02:15:58;16.30;99.90
25468;DHT22;13384;24.794;110.498;2023-03-31T02:18:38;16.40;99.90
25468;DHT22;13384;24.794;110.498;2023-03-31T02:21:12;16.40;99.90
25468;DHT22;13384;24.794;110.498;2023-03-31T02:24:10;16.40;99.90
25468;DHT22;13384;24.794;110.498;2023-03-31T02:27:12;16.40;99.90
25468;DHT22;13384;24.794;110.498;2023-03-31T02:29:48;16.40;99.90
25468;DHT22;13384;24.794;110.498;2023-03-31T02:32:45;16.30;99.90
25468;DHT22;13384;24.794;110.498;2023-03-31T02:35:36;16.40;99.90
25468;DHT22;13384;24.794;110.498;2023-03-31T02:38:11;16.30;99.90
25468;DHT22;13384;24.794;110.498;2023-03-31T02:40:43;16.30;99.90
25468;DHT22;13384;24.794;110.498;2023-03-31T02:43:38;16.40;99.90
25468;DHT22;13384;24.794;110.498;2023-03-31T02:46:11;16.50;99.90
25468;DHT22;13384;24.794;110.498;2023-03-31T02:49:03;16.50;99.90
25468;DHT22;13384;24.794;110.498;2023-03-31T02:58:22;16.60;99.90
25468;DHT22;13384;24.794;110.498;2023-03-31T03:08:16;16.70;99.90
25468;DHT22;13384;24.794;110.498;2023-03-31T03:14:20;16.80;99.90
25468;DHT22;13384;24.794;110.498;2023-03-31T03:20:27;16.90;99.90
25468;DHT22;13384;24.794;110.498;2023-03-31T03:23:22;16.80;99.90
25468;DHT22;13384;24.794;110.498;2023-03-31T03:25:55;16.90;99.90
25468;DHT22;13384;24.794;110.498;2023-03-31T03:28:28;17.00;99.90
25468;DHT22;13384;24.794;110.498;2023-03-31T03:31:21;17.10;99.90
25468;DHT22;13384;24.794;110.498;2023-03-31T03:34:01;17.20;99.90
25468;DHT22;13384;24.794;110.498;2023-03-31T03:36:56;17.20;99.90
25468;DHT22;13384;24.794;110.498;2023-03-31T03:39:28;17.30;99.90
25468;DHT22;13384;24.794;110.498;2023-03-31T03:42:01;17.50;99.90
25468;DHT22;13384;24.794;110.498;2023-03-31T03:44:34;17.50;99.90
25468;DHT22;13384;24.794;110.498;2023-03-31T03:47:09;17.70;99.90
25468;DHT22;13384;24.794;110.498;2023-03-31T03:50:22;17.80;99.90
25468;DHT22;13384;24.794;110.498;2023-03-31T03:53:16;17.80;99.90
25468;DHT22;13384;24.794;110.498;2023-03-31T03:55:50;17.90;99.90
25468;DHT22;13384;24.794;110.498;2023-03-31T03:58:24;18.00;99.90
25468;DHT22;13384;24.794;110.498;2023-03-31T04:01:16;18.10;99.90
25468;DHT22;13384;24.794;110.498;2023-03-31T04:03:49;18.20;99.90
25468;DHT22;13384;24.794;110.498;2023-03-31T04:06:24;18.20;99.90
25468;DHT22;13384;24.794;110.498;2023-03-31T04:08:57;18.10;99.90
25468;DHT22;13384;24.794;110.498;2023-03-31T04:11:50;18.20;99.90
25468;DHT22;13384;24.794;110.498;2023-03-31T04:14:24;18.30;99.90
25468;DHT22;13384;24.794;110.498;2023-03-31T04:17:15;18.20;99.90
25468;DHT22;13384;24.794;110.498;2023-03-31T04:20:09;18.40;99.90
25468;DHT22;13384;24.794;110.498;2023-03-31T04:22:48;18.40;99.90
25468;DHT22;13384;24.794;110.498;2023-03-31T04:25:41;18.60;99.90
25468;DHT22;13384;24.794;110.498;2023-03-31T04:28:50;18.60;99.90
25468;DHT22;13384;24.794;110.498;2023-03-31T04:31:23;18.80;99.90
25468;DHT22;13384;24.794;110.498;2023-03-31T04:34:18;18.80;99.90
25468;DHT22;13384;24.794;110.498;2023-03-31T04:37:09;18.90;99.90
25468;DHT22;13384;24.794;110.498;2023-03-31T04:40:03;19.10;99.90
25468;DHT22;13384;24.794;110.498;2023-03-31T04:43:19;19.10;99.90
25468;DHT22;13384;24.794;110.498;2023-03-31T04:46:14;19.10;99.90
25468;DHT22;13384;24.794;110.498;2023-03-31T04:48:48;19.10;99.90
25468;DHT22;13384;24.794;110.498;2023-03-31T04:51:41;19.00;99.90
25468;DHT22;13384;24.794;110.498;2023-03-31T04:54:15;18.90;99.90
25468;DHT22;13384;24.794;110.498;2023-03-31T04:57:14;18.70;99.90
25468;DHT22;13384;24.794;110.498;2023-03-31T04:59:49;18.60;99.90
25468;DHT22;13384;24.794;110.498;2023-03-31T05:02:42;18.60;99.90
25468;DHT22;13384;24.794;110.498;2023-03-31T05:05:28;18.50;99.90
25468;DHT22;13384;24.794;110.498;2023-03-31T05:08:02;18.40;99.90
25468;DHT22;13384;24.794;110.498;2023-03-31T05:10:58;18.40;99.90
25468;DHT22;13384;24.794;110.498;2023-03-31T05:13:32;18.50;99.90
25468;DHT22;13384;24.794;110.498;2023-03-31T05:16:08;18.40;99.90
25468;DHT22;13384;24.794;110.498;2023-03-31T05:18:51;18.30;99.90
25468;DHT22;13384;24.794;110.498;2023-03-31T05:21:24;18.30;99.90
25468;DHT22;13384;24.794;110.498;2023-03-31T05:23:59;18.20;99.90
25468;DHT22;13384;24.794;110.498;2023-03-31T05:26:33;18.20;99.90
25468;DHT22;13384;24.794;110.498;2023-03-31T05:29:27;18.20;99.90
25468;DHT22;13384;24.794;110.498;2023-03-31T05:32:27;18.30;99.90
25468;DHT22;13384;24.794;110.498;2023-03-31T05:35:00;18.50;99.90
25468;DHT22;13384;24.794;110.498;2023-03-31T05:37:53;18.50;99.90
25468;DHT22;13384;24.794;110.498;2023-03-31T05:40:26;18.60;99.90
25468;DHT22;13384;24.794;110.498;2023-03-31T05:43:00;18.50;99.90
25468;DHT22;13384;24.794;110.498;2023-03-31T05:45:35;18.60;99.90
25468;DHT22;13384;24.794;110.498;2023-03-31T05:48:07;18.60;99.90
25468;DHT22;13384;24.794;110.498;2023-03-31T05:50:40;18.60;99.90
25468;DHT22;13384;24.794;110.498;2023-03-31T05:53:20;18.60;99.90
25468;DHT22;13384;24.794;110.498;2023-03-31T05:56:02;18.60;99.90
25468;DHT22;13384;24.794;110.498;2023-03-31T05:58:39;18.50;99.90
25468;DHT22;13384;24.794;110.498;2023-03-31T06:01:17;18.60;99.90
25468;DHT22;13384;24.794;110.498;2023-03-31T06:04:13;18.60;99.90
25468;DHT22;13384;24.794;110.498;2023-03-31T06:06:48;18.60;99.90
25468;DHT22;13384;24.794;110.498;2023-03-31T06:09:33;18.50;99.90
25468;DHT22;13384;24.794;110.498;2023-03-31T06:12:26;18.60;99.90
25468;DHT22;13384;24.794;110.498;2023-03-31T06:14:58;18.60;99.90
25468;DHT22;13384;24.794;110.498;2023-03-31T06:17:30;18.60;99.90
25468;DHT22;13384;24.794;110.498;2023-03-31T06:20:05;18.60;99.90
25468;DHT22;13384;24.794;110.498;2023-03-31T06:22:56;18.60;99.90
25468;DHT22;13384;24.794;110.498;2023-03-31T06:25:29;18.60;99.90
25468;DHT22;13384;24.794;110.498;2023-03-31T06:28:21;18.50;99.90
25468;DHT22;13384;24.794;110.498;2023-03-31T06:31:13;18.60;99.90
25468;DHT22;13384;24.794;110.498;2023-03-31T06:34:05;18.60;99.90
25468;DHT22;13384;24.794;110.498;2023-03-31T06:37:19;18.60;99.90
25468;DHT22;13384;24.794;110.498;2023-03-31T06:40:22;18.60;99.90
25468;DHT22;13384;24.794;110.498;2023-03-31T06:42:55;18.50;99.90
25468;DHT22;13384;24.794;110.498;2023-03-31T06:45:27;18.50;99.90
25468;DHT22;13384;24.794;110.498;2023-03-31T06:48:19;18.50;99.90
25468;DHT22;13384;24.794;110.498;2023-03-31T06:50:57;18.40;99.90
25468;DHT22;13384;24.794;110.498;2023-03-31T06:53:50;18.50;99.90
25468;DHT22;13384;24.794;110.498;2023-03-31T06:56:43;18.50;99.90
25468;DHT22;13384;24.794;110.498;2023-03-31T06:59:18;18.50;99.90
25468;DHT22;13384;24.794;110.498;2023-03-31T07:01:52;18.50;99.90
25468;DHT22;13384;24.794;110.498;2023-03-31T07:04:24;18.50;99.90
25468;DHT22;13384;24.794;110.498;2023-03-31T07:06:58;18.50;99.90
25468;DHT22;13384;24.794;110.498;2023-03-31T07:09:59;18.50;99.90
25468;DHT22;13384;24.794;110.498;2023-03-31T07:12:32;18.60;99.90
25468;DHT22;13384;24.794;110.498;2023-03-31T07:15:46;18.60;99.90
25468;DHT22;13384;24.794;110.498;2023-03-31T07:18:58;18.50;99.90
25468;DHT22;13384;24.794;110.498;2023-03-31T07:21:53;18.50;99.90
25468;DHT22;13384;24.794;110.498;2023-03-31T07:25:10;18.60;99.90
25468;DHT22;13384;24.794;110.498;2023-03-31T07:27:44;18.50;99.90
25468;DHT22;13384;24.794;110.498;2023-03-31T07:30:19;18.50;99.90
25468;DHT22;13384;24.794;110.498;2023-03-31T07:33:11;18.50;99.90
25468;DHT22;13384;24.794;110.498;2023-03-31T07:35:49;18.50;99.90
25468;DHT22;13384;24.794;110.498;2023-03-31T07:38:41;18.40;99.90
25468;DHT22;13384;24.794;110.498;2023-03-31T07:41:33;18.40;99.90
25468;DHT22;13384;24.794;110.498;2023-03-31T07:44:51;18.30;99.90
25468;DHT22;13384;24.794;110.498;2023-03-31T07:47:46;18.30;99.90
25468;DHT22;13384;24.794;110.498;2023-03-31T07:50:38;18.20;99.90
25468;DHT22;13384;24.794;110.498;2023-03-31T07:53:19;18.20;99.90
25468;DHT22;13384;24.794;110.498;2023-03-31T07:56:11;18.20;99.90
25468;DHT22;13384;24.794;110.498;2023-03-31T07:58:47;18.20;99.90
25468;DHT22;13384;24.794;110.498;2023-03-31T08:01:21;18.20;99.90
25468;DHT22;13384;24.794;110.498;2023-03-31T08:03:58;18.10;99.90
25468;DHT22;13384;24.794;110.498;2023-03-31T08:06:31;18.10;99.90
25468;DHT22;13384;24.794;110.498;2023-03-31T08:09:23;18.00;99.90
25468;DHT22;13384;24.794;110.498;2023-03-31T08:11:56;17.90;99.90
25468;DHT22;13384;24.794;110.498;2023-03-31T08:14:32;17.90;99.90
25468;DHT22;13384;24.794;110.498;2023-03-31T08:17:29;17.90;99.90
25468;DHT22;13384;24.794;110.498;2023-03-31T08:20:42;18.00;99.90
25468;DHT22;13384;24.794;110.498;2023-03-31T08:23:17;18.00;99.90
25468;DHT22;13384;24.794;110.498;2023-03-31T08:26:14;18.10;99.90
25468;DHT22;13384;24.794;110.498;2023-03-31T08:28:50;18.10;99.90
25468;DHT22;13384;24.794;110.498;2023-03-31T08:31:45;18.00;99.90
25468;DHT22;13384;24.794;110.498;2023-03-31T08:34:19;18.10;99.90
25468;DHT22;13384;24.794;110.498;2023-03-31T08:36:53;18.00;99.90
25468;DHT22;13384;24.794;110.498;2023-03-31T08:39:48;18.00;99.90
25468;DHT22;13384;24.794;110.498;2023-03-31T08:42:45;17.90;99.90
25468;DHT22;13384;24.794;110.498;2023-03-31T08:45:47;17.90;99.90
25468;DHT22;13384;24.794;110.498;2023-03-31T08:48:45;17.90;99.90
25468;DHT22;13384;24.794;110.498;2023-03-31T08:54:37;17.90;99.90
25468;DHT22;13384;24.794;110.498;2023-03-31T08:57:25;17.80;99.90
25468;DHT22;13384;24.794;110.498;2023-03-31T09:00:04;17.90;99.90
25468;DHT22;13384;24.794;110.498;2023-03-31T09:03:04;17.90;99.90
25468;DHT22;13384;24.794;110.498;2023-03-31T09:05:57;17.90;99.90
25468;DHT22;13384;24.794;110.498;2023-03-31T09:08:40;17.90;99.90
25468;DHT22;13384;24.794;110.498;2023-03-31T09:11:52;17.90;99.90
25468;DHT22;13384;24.794;110.498;2023-03-31T09:14:53;17.90;99.90
25468;DHT22;13384;24.794;110.498;2023-03-31T09:18:25;18.00;99.90
25468;DHT22;13384;24.794;110.498;2023-03-31T09:21:26;18.00;99.90
25468;DHT22;13384;24.794;110.498;2023-03-31T09:24:03;17.90;99.90
25468;DHT22;13384;24.794;110.498;2023-03-31T09:26:54;17.90;99.90
25468;DHT22;13384;24.794;110.498;2023-03-31T09:29:55;17.90;99.90
25468;DHT22;13384;24.794;110.498;2023-03-31T09:32:31;17.90;99.90
25468;DHT22;13384;24.794;110.498;2023-03-31T09:35:24;17.90;99.90
25468;DHT22;13384;24.794;110.498;2023-03-31T09:38:20;17.90;99.90
25468;DHT22;13384;24.794;110.498;2023-03-31T09:41:36;17.80;99.90
25468;DHT22;13384;24.794;110.498;2023-03-31T09:44:36;17.80;99.90
25468;DHT22;13384;24.794;110.498;2023-03-31T09:47:28;17.70;99.90
25468;DHT22;13384;24.794;110.498;2023-03-31T09:50:20;17.70;99.90
25468;DHT22;13384;24.794;110.498;2023-03-31T09:52:59;17.50;99.90
25468;DHT22;13384;24.794;110.498;2023-03-31T09:56:10;17.60;99.90
25468;DHT22;13384;24.794;110.498;2023-03-31T09:58:48;17.60;99.90
25468;DHT22;13384;24.794;110.498;2023-03-31T10:01:22;17.60;99.90
25468;DHT22;13384;24.794;110.498;2023-03-31T10:03:56;17.60;99.90
25468;DHT22;13384;24.794;110.498;2023-03-31T10:06:40;17.50;99.90
25468;DHT22;13384;24.794;110.498;2023-03-31T10:09:15;17.50;99.90
25468;DHT22;13384;24.794;110.498;2023-03-31T10:11:57;17.50;99.90
25468;DHT22;13384;24.794;110.498;2023-03-31T10:15:28;17.50;99.90
25468;DHT22;13384;24.794;110.498;2023-03-31T10:18:03;17.50;99.90
25468;DHT22;13384;24.794;110.498;2023-03-31T10:20:51;17.40;99.90
25468;DHT22;13384;24.794;110.498;2023-03-31T10:24:17;17.50;99.90
25468;DHT22;13384;24.794;110.498;2023-03-31T10:26:53;17.40;99.90
25468;DHT22;13384;24.794;110.498;2023-03-31T10:29:58;17.30;99.90
25468;DHT22;13384;24.794;110.498;2023-03-31T10:32:49;17.10;99.90
25468;DHT22;13384;24.794;110.498;2023-03-31T10:35:30;17.30;99.90
25468;DHT22;13384;24.794;110.498;2023-03-31T10:38:36;17.50;99.90
25468;DHT22;13384;24.794;110.498;2023-03-31T10:41:28;17.40;99.90
25468;DHT22;13384;24.794;110.498;2023-03-31T10:44:06;17.40;99.90
25468;DHT22;13384;24.794;110.498;2023-03-31T10:49:55;17.30;99.90
25468;DHT22;13384;24.794;110.498;2023-03-31T10:52:48;17.30;99.90
25468;DHT22;13384;24.794;110.498;2023-03-31T11:14:49;17.10;99.90
25468;DHT22;13384;24.794;110.498;2023-03-31T11:24:08;17.00;99.90
25468;DHT22;13384;24.794;110.498;2023-03-31T11:33:04;17.10;99.90
25468;DHT22;13384;24.794;110.498;2023-03-31T11:36:15;17.10;99.90
25468;DHT22;13384;24.794;110.498;2023-03-31T11:42:33;17.00;99.90
25468;DHT22;13384;24.794;110.498;2023-03-31T11:45:40;17.00;99.90
25468;DHT22;13384;24.794;110.498;2023-03-31T11:48:21;16.80;99.90
25468;DHT22;13384;24.794;110.498;2023-03-31T11:51:26;16.90;99.90
25468;DHT22;13384;24.794;110.498;2023-03-31T11:54:16;17.00;99.90
25468;DHT22;13384;24.794;110.498;2023-03-31T11:56:51;17.00;99.90
25468;DHT22;13384;24.794;110.498;2023-03-31T11:59:28;17.00;99.90
25468;DHT22;13384;24.794;110.498;2023-03-31T12:02:14;17.00;99.90
25468;DHT22;13384;24.794;110.498;2023-03-31T12:04:54;16.70;99.90
25468;DHT22;13384;24.794;110.498;2023-03-31T12:13:19;17.00;99.90
25468;DHT22;13384;24.794;110.498;2023-03-31T12:22:47;17.00;99.90
25468;DHT22;13384;24.794;110.498;2023-03-31T12:28:38;16.90;99.90
25468;DHT22;13384;24.794;110.498;2023-03-31T12:31:35;16.90;99.90
25468;DHT22;13384;24.794;110.498;2023-03-31T12:34:32;16.90;99.90
25468;DHT22;13384;24.794;110.498;2023-03-31T12:38:11;16.90;99.90
25468;DHT22;13384;24.794;110.498;2023-03-31T12:48:05;16.60;99.90
25468;DHT22;13384;24.794;110.498;2023-03-31T12:51:04;16.80;99.90
25468;DHT22;13384;24.794;110.498;2023-03-31T12:57:29;16.90;99.90
25468;DHT22;13384;24.794;110.498;2023-03-31T13:00:27;16.60;99.90
25468;DHT22;13384;24.794;110.498;2023-03-31T13:12:17;16.80;99.90
25468;DHT22;13384;24.794;110.498;2023-03-31T13:14:53;16.90;99.90
25468;DHT22;13384;24.794;110.498;2023-03-31T13:17:59;16.80;99.90
25468;DHT22;13384;24.794;110.498;2023-03-31T13:20:40;16.70;99.90
25468;DHT22;13384;24.794;110.498;2023-03-31T13:23:48;16.70;99.90
25468;DHT22;13384;24.794;110.498;2023-03-31T13:30:50;16.60;99.90
25468;DHT22;13384;24.794;110.498;2023-03-31T13:33:57;16.30;99.90
25468;DHT22;13384;24.794;110.498;2023-03-31T13:51:48;16.70;99.90
25468;DHT22;13384;24.794;110.498;2023-03-31T13:55:21;16.70;99.90
25468;DHT22;13384;24.794;110.498;2023-03-31T14:04:59;16.60;99.90
25468;DHT22;13384;24.794;110.498;2023-03-31T14:14:16;16.50;99.90
25468;DHT22;13384;24.794;110.498;2023-03-31T14:17:49;16.40;99.90
25468;DHT22;13384;24.794;110.498;2023-03-31T14:24:49;16.60;99.90
25468;DHT22;13384;24.794;110.498;2023-03-31T14:38:23;16.50;99.90
25468;DHT22;13384;24.794;110.498;2023-03-31T14:41:54;16.60;99.90
25468;DHT22;13384;24.794;110.498;2023-03-31T14:45:30;16.50;99.90
25468;DHT22;13384;24.794;110.498;2023-03-31T14:48:11;16.30;99.90
25468;DHT22;13384;24.794;110.498;2023-03-31T14:50:46;16.50;99.90
25468;DHT22;13384;24.794;110.498;2023-03-31T14:53:23;16.50;99.90
25468;DHT22;13384;24.794;110.498;2023-03-31T14:56:33;16.50;99.90
25468;DHT22;13384;24.794;110.498;2023-03-31T14:59:27;16.60;99.90
25468;DHT22;13384;24.794;110.498;2023-03-31T15:02:44;16.60;99.90
25468;DHT22;13384;24.794;110.498;2023-03-31T15:05:39;16.60;99.90
25468;DHT22;13384;24.794;110.498;2023-03-31T15:08:15;16.60;99.90
25468;DHT22;13384;24.794;110.498;2023-03-31T15:10:55;16.60;99.90
25468;DHT22;13384;24.794;110.498;2023-03-31T15:13:51;16.50;99.90
25468;DHT22;13384;24.794;110.498;2023-03-31T15:16:50;16.40;99.90
25468;DHT22;13384;24.794;110.498;2023-03-31T15:19:56;16.50;99.90
25468;DHT22;13384;24.794;110.498;2023-03-31T15:23:17;16.50;99.90
25468;DHT22;13384;24.794;110.498;2023-03-31T15:26:18;16.50;99.90
25468;DHT22;13384;24.794;110.498;2023-03-31T15:29:40;16.30;99.90
25468;DHT22;13384;24.794;110.498;2023-03-31T15:35:32;16.50;99.90
25468;DHT22;13384;24.794;110.498;2023-03-31T15:38:08;16.40;99.90
25468;DHT22;13384;24.794;110.498;2023-03-31T15:40:57;16.40;99.90
25468;DHT22;13384;24.794;110.498;2023-03-31T15:44:56;16.50;99.90
25468;DHT22;13384;24.794;110.498;2023-03-31T15:48:33;16.50;99.90
25468;DHT22;13384;24.794;110.498;2023-03-31T15:51:36;16.50;99.90
25468;DHT22;13384;24.794;110.498;2023-03-31T15:54:49;16.50;99.90
25468;DHT22;13384;24.794;110.498;2023-03-31T15:57:44;16.50;99.90
25468;DHT22;13384;24.794;110.498;2023-03-31T16:00:40;16.40;99.90
25468;DHT22;13384;24.794;110.498;2023-03-31T16:03:42;16.40;99.90
25468;DHT22;13384;24.794;110.498;2023-03-31T16:07:03;16.50;99.90
25468;DHT22;13384;24.794;110.498;2023-03-31T16:10:02;16.50;99.90
25468;DHT22;13384;24.794;110.498;2023-03-31T16:13:01;16.40;99.90
25468;DHT22;13384;24.794;110.498;2023-03-31T16:16:17;16.50;99.90
25468;DHT22;13384;24.794;110.498;2023-03-31T16:18:59;16.50;99.90
25468;DHT22;13384;24.794;110.498;2023-03-31T16:21:49;16.40;99.90
25468;DHT22;13384;24.794;110.498;2023-03-31T16:25:08;16.40;99.90
25468;DHT22;13384;24.794;110.498;2023-03-31T16:28:02;16.40;99.90
25468;DHT22;13384;24.794;110.498;2023-03-31T16:34:16;16.40;99.90
25468;DHT22;13384;24.794;110.498;2023-03-31T16:36:56;16.40;99.90
25468;DHT22;13384;24.794;110.498;2023-03-31T16:39:29;16.40;99.90
25468;DHT22;13384;24.794;110.498;2023-03-31T16:42:40;16.40;99.90
25468;DHT22;13384;24.794;110.498;2023-03-31T16:45:34;16.10;99.90
25468;DHT22;13384;24.794;110.498;2023-03-31T16:48:09;16.10;99.90
25468;DHT22;13384;24.794;110.498;2023-03-31T16:51:25;16.20;99.90
25468;DHT22;13384;24.794;110.498;2023-03-31T16:53:58;16.40;99.90
25468;DHT22;13384;24.794;110.498;2023-03-31T16:56:50;16.40;99.90
25468;DHT22;13384;24.794;110.498;2023-03-31T16:59:26;16.40;99.90
25468;DHT22;13384;24.794;110.498;2023-03-31T17:01:59;16.40;99.90
25468;DHT22;13384;24.794;110.498;2023-03-31T17:04:37;16.40;99.90
25468;DHT22;13384;24.794;110.498;2023-03-31T17:07:32;16.40;99.90
25468;DHT22;13384;24.794;110.498;2023-03-31T17:10:07;16.40;99.90
25468;DHT22;13384;24.794;110.498;2023-03-31T17:13:00;16.40;99.90
25468;DHT22;13384;24.794;110.498;2023-03-31T17:15:36;16.40;99.90
25468;DHT22;13384;24.794;110.498;2023-03-31T17:18:29;16.40;99.90
25468;DHT22;13384;24.794;110.498;2023-03-31T17:21:20;16.40;99.90
25468;DHT22;13384;24.794;110.498;2023-03-31T17:23:55;16.40;99.90
25468;DHT22;13384;24.794;110.498;2023-03-31T17:26:34;16.40;99.90
25468;DHT22;13384;24.794;110.498;2023-03-31T17:29:26;16.40;99.90
25468;DHT22;13384;24.794;110.498;2023-03-31T17:32:21;16.40;99.90
25468;DHT22;13384;24.794;110.498;2023-03-31T17:35:13;16.40;99.90
25468;DHT22;13384;24.794;110.498;2023-03-31T17:37:54;16.30;99.90
25468;DHT22;13384;24.794;110.498;2023-03-31T17:40:47;16.40;99.90
25468;DHT22;13384;24.794;110.498;2023-03-31T17:43:47;16.30;99.90
25468;DHT22;13384;24.794;110.498;2023-03-31T17:46:20;16.30;99.90
25468;DHT22;13384;24.794;110.498;2023-03-31T17:48:55;16.30;99.90
25468;DHT22;13384;24.794;110.498;2023-03-31T17:51:29;16.30;99.90
25468;DHT22;13384;24.794;110.498;2023-03-31T17:54:37;16.30;99.90
25468;DHT22;13384;24.794;110.498;2023-03-31T17:57:11;16.40;99.90
25468;DHT22;13384;24.794;110.498;2023-03-31T17:59:45;16.40;99.90
25468;DHT22;13384;24.794;110.498;2023-03-31T18:02:39;16.40;99.90
25468;DHT22;13384;24.794;110.498;2023-03-31T18:05:36;16.30;99.90
25468;DHT22;13384;24.794;110.498;2023-03-31T18:08:09;16.30;99.90
25468;DHT22;13384;24.794;110.498;2023-03-31T18:11:01;16.30;99.90
25468;DHT22;13384;24.794;110.498;2023-03-31T18:13:35;16.30;99.90
25468;DHT22;13384;24.794;110.498;2023-03-31T18:16:08;16.30;99.90
25468;DHT22;13384;24.794;110.498;2023-03-31T18:19:04;16.30;99.90
25468;DHT22;13384;24.794;110.498;2023-03-31T18:21:41;16.30;99.90
25468;DHT22;13384;24.794;110.498;2023-03-31T18:24:16;16.30;99.90
25468;DHT22;13384;24.794;110.498;2023-03-31T18:26:49;16.30;99.90
25468;DHT22;13384;24.794;110.498;2023-03-31T18:29:22;16.30;99.90
25468;DHT22;13384;24.794;110.498;2023-03-31T18:31:55;16.30;99.90
25468;DHT22;13384;24.794;110.498;2023-03-31T18:34:29;16.30;99.90
25468;DHT22;13384;24.794;110.498;2023-03-31T18:37:01;16.30;99.90
25468;DHT22;13384;24.794;110.498;2023-03-31T18:39:53;16.30;99.90
25468;DHT22;13384;24.794;110.498;2023-03-31T18:42:26;16.30;99.90
25468;DHT22;13384;24.794;110.498;2023-03-31T18:44:57;16.30;99.90
25468;DHT22;13384;24.794;110.498;2023-03-31T18:47:49;16.30;99.90
25468;DHT22;13384;24.794;110.498;2023-03-31T18:50:21;16.30;99.90
25468;DHT22;13384;24.794;110.498;2023-03-31T18:52:53;16.30;99.90
25468;DHT22;13384;24.794;110.498;2023-03-31T18:55:26;16.30;99.90
25468;DHT22;13384;24.794;110.498;2023-03-31T18:58:18;16.30;99.90
25468;DHT22;13384;24.794;110.498;2023-03-31T19:00:50;16.30;99.90
25468;DHT22;13384;24.794;110.498;2023-03-31T19:03:23;16.30;99.90
25468;DHT22;13384;24.794;110.498;2023-03-31T19:06:05;16.30;99.90
25468;DHT22;13384;24.794;110.498;2023-03-31T19:08:40;16.30;99.90
25468;DHT22;13384;24.794;110.498;2023-03-31T19:11:13;16.30;99.90
25468;DHT22;13384;24.794;110.498;2023-03-31T19:13:46;16.30;99.90
25468;DHT22;13384;24.794;110.498;2023-03-31T19:16:18;16.30;99.90
25468;DHT22;13384;24.794;110.498;2023-03-31T19:18:51;16.30;99.90
25468;DHT22;13384;24.794;110.498;2023-03-31T19:21:22;16.30;99.90
25468;DHT22;13384;24.794;110.498;2023-03-31T19:23:54;16.30;99.90
25468;DHT22;13384;24.794;110.498;2023-03-31T19:26:26;16.30;99.90
25468;DHT22;13384;24.794;110.498;2023-03-31T19:28:58;16.30;99.90
25468;DHT22;13384;24.794;110.498;2023-03-31T19:31:30;16.20;99.90
25468;DHT22;13384;24.794;110.498;2023-03-31T19:34:09;16.20;99.90
25468;DHT22;13384;24.794;110.498;2023-03-31T19:36:46;16.20;99.90
25468;DHT22;13384;24.794;110.498;2023-03-31T19:39:18;16.10;99.90
25468;DHT22;13384;24.794;110.498;2023-03-31T19:41:49;16.00;99.90
25468;DHT22;13384;24.794;110.498;2023-03-31T19:44:21;16.00;99.90
25468;DHT22;13384;24.794;110.498;2023-03-31T19:46:52;16.10;99.90
25468;DHT22;13384;24.794;110.498;2023-03-31T19:49:24;16.20;99.90
25468;DHT22;13384;24.794;110.498;2023-03-31T19:51:56;16.30;99.90
25468;DHT22;13384;24.794;110.498;2023-03-31T19:54:28;16.30;99.90
25468;DHT22;13384;24.794;110.498;2023-03-31T19:57:20;16.30;99.90
25468;DHT22;13384;24.794;110.498;2023-03-31T19:59:52;16.20;99.90
25468;DHT22;13384;24.794;110.498;2023-03-31T20:02:24;16.20;99.90